createdAt,value
2019-02-17T00:02:18.157Z,5.53
2019-02-17T00:04:45.822Z,5.40
2019-02-17T00:07:13.606Z,5.67
2019-02-17T00:09:41.407Z,4.97
2019-02-17T00:12:09.082Z,5.70
2019-02-17T00:14:36.914Z,5.30
2019-02-17T00:17:04.645Z,5.80
2019-02-17T00:19:32.375Z,6.30
2019-02-17T00:22:00.226Z,5.87
2019-02-17T00:24:28.080Z,6.17
2019-02-17T00:26:56.078Z,5.97
2019-02-17T00:29:23.880Z,6.13
2019-02-17T00:31:51.594Z,6.67
2019-02-17T00:34:19.441Z,6.17
2019-02-17T00:36:50.988Z,6.50
2019-02-17T00:39:18.831Z,7.03
2019-02-17T00:41:46.606Z,6.73
2019-02-17T00:44:14.378Z,7.17
2019-02-17T00:46:42.475Z,6.57
2019-02-17T00:49:10.597Z,6.10
2019-02-17T00:51:38.537Z,6.77
2019-02-17T00:54:06.256Z,6.97
2019-02-17T00:56:34.173Z,8.27
2019-02-17T00:59:09.715Z,7.70
2019-02-17T01:01:32.071Z,6.30
2019-02-17T01:03:59.995Z,5.87
2019-02-17T01:06:27.797Z,7.43
2019-02-17T01:08:55.653Z,6.90
2019-02-17T01:11:23.508Z,6.10
2019-02-17T01:13:51.323Z,6.07
2019-02-17T01:16:19.112Z,6.53
2019-02-17T01:18:47.080Z,5.90
2019-02-17T01:21:14.970Z,6.47
2019-02-17T01:23:44.119Z,6.60
2019-02-17T01:26:12.092Z,6.30
2019-02-17T01:28:39.969Z,5.87
2019-02-17T01:31:08.498Z,5.83
2019-02-17T01:33:36.432Z,5.83
2019-02-17T01:36:04.463Z,5.43
2019-02-17T01:38:32.225Z,4.60
2019-02-17T01:41:00.001Z,5.57
2019-02-17T01:43:27.854Z,5.73
2019-02-17T01:45:56.830Z,5.53
2019-02-17T01:48:25.109Z,5.77
2019-02-17T01:50:53.131Z,5.33
2019-02-17T01:53:20.949Z,5.03
2019-02-17T01:55:49.033Z,5.27
2019-02-17T01:58:16.979Z,5.57
2019-02-17T02:00:45.082Z,5.90
2019-02-17T02:03:12.995Z,5.37
2019-02-17T02:05:40.881Z,4.87
2019-02-17T02:08:08.994Z,5.37
2019-02-17T02:10:36.877Z,6.10
2019-02-17T02:13:04.648Z,4.97
2019-02-17T02:15:32.642Z,5.37
2019-02-17T02:18:00.561Z,5.50
2019-02-17T02:20:29.282Z,4.67
2019-02-17T02:22:57.145Z,5.30
2019-02-17T02:25:24.962Z,4.87
2019-02-17T02:27:52.954Z,5.00
2019-02-17T02:30:20.845Z,4.33
2019-02-17T02:32:48.646Z,4.40
2019-02-17T02:35:16.757Z,4.60
2019-02-17T02:37:45.819Z,5.23
2019-02-17T02:40:13.836Z,5.03
2019-02-17T02:42:41.779Z,5.10
2019-02-17T02:45:10.144Z,5.30
2019-02-17T02:47:38.059Z,5.20
2019-02-17T02:50:07.226Z,5.40
2019-02-17T02:52:35.184Z,4.93
2019-02-17T02:55:03.373Z,4.77
2019-02-17T02:57:31.281Z,4.73
2019-02-17T02:59:59.305Z,4.30
2019-02-17T03:02:27.233Z,4.57
2019-02-17T03:04:55.325Z,5.03
2019-02-17T03:07:24.607Z,5.27
2019-02-17T03:09:52.499Z,4.63
2019-02-17T03:12:20.376Z,4.50
2019-02-17T03:14:48.310Z,4.73
2019-02-17T03:17:16.018Z,4.53
2019-02-17T03:19:44.467Z,5.07
2019-02-17T03:22:12.412Z,5.40
2019-02-17T03:24:40.573Z,8.07
2019-02-17T03:27:08.431Z,5.57
2019-02-17T03:29:36.446Z,4.60
2019-02-17T03:32:04.688Z,4.63
2019-02-17T03:34:32.572Z,5.20
2019-02-17T03:37:00.497Z,4.40
2019-02-17T03:39:28.379Z,4.30
2019-02-17T03:41:56.350Z,4.57
2019-02-17T03:44:24.168Z,4.93
2019-02-17T03:46:52.146Z,5.10
2019-02-17T03:49:20.200Z,5.00
2019-02-17T03:51:48.160Z,4.77
2019-02-17T03:54:16.093Z,4.80
2019-02-17T03:56:43.936Z,4.60
2019-02-17T03:59:12.007Z,4.73
2019-02-17T04:01:39.993Z,5.50
2019-02-17T04:04:07.927Z,4.97
2019-02-17T04:06:36.148Z,6.00
2019-02-17T04:09:06.066Z,6.37
2019-02-17T04:11:34.008Z,5.67
2019-02-17T04:14:01.931Z,5.00
2019-02-17T04:16:29.889Z,6.57
2019-02-17T04:18:57.777Z,5.93
2019-02-17T04:21:25.488Z,6.63
2019-02-17T04:23:53.514Z,5.87
2019-02-17T04:26:21.598Z,5.97
2019-02-17T04:28:49.598Z,5.27
2019-02-17T04:31:17.807Z,6.23
2019-02-17T04:33:45.646Z,4.43
2019-02-17T04:36:13.581Z,4.50
2019-02-17T04:38:41.663Z,4.67
2019-02-17T04:41:09.715Z,4.37
2019-02-17T04:43:37.739Z,5.10
2019-02-17T04:46:05.919Z,4.77
2019-02-17T04:48:33.864Z,4.63
2019-02-17T04:51:01.869Z,5.10
2019-02-17T04:53:29.782Z,4.53
2019-02-17T04:55:57.658Z,4.60
2019-02-17T04:58:25.839Z,5.20
2019-02-17T05:00:53.754Z,4.03
2019-02-17T05:03:21.745Z,4.60
2019-02-17T05:05:49.716Z,5.40
2019-02-17T05:08:17.787Z,5.67
2019-02-17T05:10:46.241Z,5.57
2019-02-17T05:13:14.433Z,5.03
2019-02-17T05:15:42.445Z,5.00
2019-02-17T05:18:10.454Z,5.47
2019-02-17T05:20:38.384Z,4.90
2019-02-17T05:23:06.183Z,5.07
2019-02-17T05:25:34.217Z,4.67
2019-02-17T05:28:02.249Z,4.93
2019-02-17T05:30:30.230Z,3.90
2019-02-17T05:32:58.264Z,4.30
2019-02-17T05:35:26.091Z,4.93
2019-02-17T05:37:54.087Z,4.70
2019-02-17T05:40:21.988Z,4.90
2019-02-17T05:42:50.808Z,6.83
2019-02-17T05:45:18.835Z,4.93
2019-02-17T05:47:46.680Z,5.43
2019-02-17T05:50:14.646Z,5.30
2019-02-17T05:52:42.717Z,5.53
2019-02-17T05:55:10.488Z,6.03
2019-02-17T05:57:38.557Z,6.53
2019-02-17T06:00:07.328Z,6.07
2019-02-17T06:02:35.207Z,6.47
2019-02-17T06:05:03.219Z,6.30
2019-02-17T06:07:30.954Z,6.93
2019-02-17T06:09:59.887Z,14.97
2019-02-17T06:12:27.669Z,10.77
2019-02-17T06:14:55.309Z,7.17
2019-02-17T06:17:23.149Z,8.87
2019-02-17T06:19:50.940Z,6.47
2019-02-17T06:22:18.607Z,5.77
2019-02-17T06:24:46.296Z,6.33
2019-02-17T06:27:14.018Z,6.27
2019-02-17T06:29:41.681Z,6.87
2019-02-17T06:32:09.445Z,5.90
2019-02-17T06:34:37.134Z,6.53
2019-02-17T06:37:04.772Z,6.63
2019-02-17T06:39:32.382Z,7.07
2019-02-17T06:42:00.232Z,6.37
2019-02-17T06:44:27.832Z,5.77
2019-02-17T06:46:58.757Z,5.53
2019-02-17T06:49:27.563Z,5.80
2019-02-17T06:52:00.559Z,5.80
2019-02-17T06:54:29.427Z,4.97
2019-02-17T06:57:14.466Z,5.07
2019-02-17T06:59:43.632Z,5.97
2019-02-17T07:02:12.806Z,5.83
2019-02-17T07:05:21.443Z,5.50
2019-02-17T07:07:50.340Z,5.90
2019-02-17T07:10:19.086Z,5.93
2019-02-17T07:12:46.783Z,5.93
2019-02-17T07:15:17.432Z,5.53
2019-02-17T07:17:47.219Z,5.97
2019-02-17T07:20:15.054Z,6.30
2019-02-17T07:22:42.964Z,5.77
2019-02-17T07:25:11.560Z,6.70
2019-02-17T07:27:39.274Z,6.43
2019-02-17T07:30:06.996Z,5.87
2019-02-17T07:32:34.724Z,6.10
2019-02-17T07:35:06.003Z,6.43
2019-02-17T07:37:34.044Z,6.47
2019-02-17T07:40:01.733Z,5.83
2019-02-17T07:42:29.426Z,7.00
2019-02-17T07:44:57.067Z,6.37
2019-02-17T07:47:24.742Z,6.00
2019-02-17T07:49:52.364Z,6.67
2019-02-17T07:52:20.170Z,6.07
2019-02-17T07:54:47.751Z,6.27
2019-02-17T07:57:22.615Z,5.90
2019-02-17T07:59:50.351Z,6.33
2019-02-17T08:02:18.091Z,5.93
2019-02-17T08:04:45.754Z,6.20
2019-02-17T08:07:13.445Z,6.20
2019-02-17T08:09:41.203Z,6.33
2019-02-17T08:12:08.759Z,5.97
2019-02-17T08:14:36.535Z,6.60
2019-02-17T08:17:04.180Z,6.40
2019-02-17T08:19:31.808Z,6.00
2019-02-17T08:21:59.403Z,5.80
2019-02-17T08:24:27.069Z,7.17
2019-02-17T08:26:54.703Z,6.87
2019-02-17T08:29:22.291Z,6.43
2019-02-17T08:31:55.791Z,6.57
2019-02-17T08:34:21.487Z,6.40
2019-02-17T08:36:49.980Z,7.30
2019-02-17T08:39:17.695Z,7.00
2019-02-17T08:41:45.288Z,9.10
2019-02-17T08:44:12.942Z,6.73
2019-02-17T08:46:40.527Z,7.00
2019-02-17T08:49:08.273Z,6.50
2019-02-17T08:51:35.991Z,7.40
2019-02-17T08:54:03.547Z,6.57
2019-02-17T08:56:31.265Z,7.10
2019-02-17T08:58:59.007Z,7.50
2019-02-17T09:01:26.691Z,6.67
2019-02-17T09:03:54.347Z,6.80
2019-02-17T09:06:22.007Z,6.83
2019-02-17T09:08:49.751Z,7.20
2019-02-17T09:11:17.428Z,7.70
2019-02-17T09:13:45.305Z,7.13
2019-02-17T09:16:12.899Z,7.30
2019-02-17T09:18:40.618Z,6.93
2019-02-17T09:21:08.624Z,6.80
2019-02-17T09:23:36.336Z,7.90
2019-02-17T09:26:06.917Z,7.63
2019-02-17T09:28:34.544Z,8.20
2019-02-17T09:31:02.197Z,8.23
2019-02-17T09:33:29.838Z,8.17
2019-02-17T09:35:57.522Z,9.23
2019-02-17T09:38:25.346Z,10.37
2019-02-17T09:40:54.133Z,10.07
2019-02-17T09:43:21.875Z,10.17
2019-02-17T09:45:49.693Z,11.50
2019-02-17T09:48:17.429Z,8.73
2019-02-17T09:50:45.128Z,9.07
2019-02-17T09:53:12.838Z,9.10
2019-02-17T09:55:40.593Z,9.47
2019-02-17T09:58:08.266Z,8.47
2019-02-17T10:00:36.142Z,8.57
2019-02-17T10:03:03.788Z,8.50
2019-02-17T10:05:31.424Z,8.73
2019-02-17T10:07:59.128Z,7.50
2019-02-17T10:10:26.881Z,8.60
2019-02-17T10:12:54.654Z,8.43
2019-02-17T10:15:22.260Z,8.97
2019-02-17T10:17:49.928Z,8.87
2019-02-17T10:20:17.648Z,7.80
2019-02-17T10:22:45.254Z,7.73
2019-02-17T10:25:12.882Z,7.07
2019-02-17T10:27:40.605Z,12.83
2019-02-17T10:30:10.206Z,7.37
2019-02-17T10:32:39.251Z,11.90
2019-02-17T10:35:07.492Z,22.37
2019-02-17T10:37:35.074Z,5.57
2019-02-17T10:40:02.880Z,5.37
2019-02-17T10:42:30.467Z,5.87
2019-02-17T10:44:58.201Z,6.13
2019-02-17T10:47:25.792Z,6.10
2019-02-17T10:49:53.450Z,5.57
2019-02-17T10:52:21.069Z,6.30
2019-02-17T10:54:48.691Z,6.10
2019-02-17T10:57:16.314Z,6.20
2019-02-17T10:59:43.999Z,5.70
2019-02-17T11:02:12.049Z,5.50
2019-02-17T11:04:39.633Z,5.53
2019-02-17T11:07:07.344Z,5.20
2019-02-17T11:09:35.037Z,5.63
2019-02-17T11:12:02.738Z,5.37
2019-02-17T11:14:30.404Z,5.33
2019-02-17T11:16:58.146Z,5.87
2019-02-17T11:19:25.700Z,5.63
2019-02-17T11:21:53.284Z,5.53
2019-02-17T11:24:22.382Z,5.00
2019-02-17T11:26:50.003Z,5.23
2019-02-17T11:29:17.716Z,4.70
2019-02-17T11:31:45.493Z,4.80
2019-02-17T11:34:13.189Z,5.13
2019-02-17T11:36:41.007Z,5.63
2019-02-17T11:39:15.969Z,5.00
2019-02-17T11:41:43.618Z,4.63
2019-02-17T11:44:11.228Z,5.07
2019-02-17T11:46:38.821Z,5.50
2019-02-17T11:49:06.761Z,4.80
2019-02-17T11:51:34.440Z,4.83
2019-02-17T11:54:02.024Z,5.17
2019-02-17T11:56:29.671Z,5.30
2019-02-17T11:58:57.434Z,5.50
2019-02-17T12:01:25.104Z,6.90
2019-02-17T12:03:52.848Z,4.80
2019-02-17T14:52:55.297Z,2.37
2019-02-17T14:55:23.493Z,3.07
2019-02-17T14:57:52.752Z,3.37
2019-02-17T15:00:20.461Z,3.30
2019-02-17T15:02:48.150Z,3.70
2019-02-17T15:05:15.726Z,2.90
2019-02-17T15:07:43.500Z,3.50
2019-02-17T15:10:11.211Z,3.33
2019-02-17T15:12:38.780Z,2.97
2019-02-17T15:15:07.168Z,3.27
2019-02-17T15:17:34.861Z,3.20
2019-02-17T15:20:02.430Z,3.13
2019-02-17T15:22:29.978Z,3.27
2019-02-17T15:24:57.626Z,3.43
2019-02-17T15:27:25.246Z,3.47
2019-02-17T15:29:52.881Z,3.50
2019-02-17T15:32:20.548Z,3.53
2019-02-17T15:34:48.170Z,3.37
2019-02-17T15:37:15.741Z,3.50
2019-02-17T15:39:43.387Z,4.10
2019-02-17T15:42:10.985Z,3.10
2019-02-17T15:44:38.579Z,3.37
2019-02-17T15:47:06.379Z,3.47
2019-02-17T15:49:34.042Z,3.80
2019-02-17T15:52:01.609Z,3.70
2019-02-17T15:54:29.213Z,3.53
2019-02-17T15:56:56.918Z,3.73
2019-02-17T15:59:24.492Z,4.00
2019-02-17T16:01:52.086Z,3.57
2019-02-17T16:04:28.147Z,3.53
2019-02-17T16:06:49.219Z,4.07
2019-02-17T16:09:19.646Z,4.10
2019-02-17T16:11:47.215Z,3.63
2019-02-17T16:14:14.865Z,3.80
2019-02-17T16:16:42.573Z,4.30
2019-02-17T16:19:10.105Z,3.43
2019-02-17T16:21:37.739Z,3.90
2019-02-17T16:24:05.401Z,4.20
2019-02-17T16:26:35.135Z,4.30
2019-02-17T16:29:03.964Z,5.10
2019-02-17T16:31:31.550Z,4.70
2019-02-17T16:34:03.070Z,4.67
2019-02-17T16:36:30.719Z,4.07
2019-02-17T16:38:58.338Z,4.33
2019-02-17T16:41:25.921Z,5.47
2019-02-17T16:43:53.543Z,9.63
2019-02-17T16:46:21.229Z,8.90
2019-02-17T16:48:48.878Z,7.27
2019-02-17T16:51:16.565Z,3.97
2019-02-17T16:53:44.234Z,4.20
2019-02-17T16:56:11.922Z,4.03
2019-02-17T16:58:39.574Z,4.20
2019-02-17T17:01:07.315Z,4.17
2019-02-17T17:03:34.885Z,5.23
2019-02-17T17:06:02.505Z,4.50
2019-02-17T17:08:30.226Z,4.50
2019-02-17T17:10:57.788Z,6.73
2019-02-17T17:13:25.469Z,4.97
2019-02-17T17:15:53.114Z,4.73
2019-02-17T17:18:20.781Z,5.57
2019-02-17T17:20:48.393Z,4.87
2019-02-17T17:23:15.967Z,4.73
2019-02-17T17:25:43.628Z,4.83
2019-02-17T17:28:11.268Z,5.23
2019-02-17T17:30:38.849Z,5.13
2019-02-17T17:33:06.499Z,5.50
2019-02-17T17:35:34.121Z,6.30
2019-02-17T17:38:01.778Z,6.30
2019-02-17T17:40:29.370Z,5.97
2019-02-17T17:42:57.332Z,5.67
2019-02-17T17:45:24.927Z,6.00
2019-02-17T17:47:52.524Z,5.50
2019-02-17T17:50:20.120Z,5.97
2019-02-17T17:52:48.070Z,6.33
2019-02-17T17:55:15.679Z,6.00
2019-02-17T17:57:43.361Z,7.00
2019-02-17T18:00:12.708Z,8.13
2019-02-17T18:02:40.351Z,7.67
2019-02-17T18:05:09.444Z,6.37
2019-02-17T18:07:37.289Z,7.27
2019-02-17T18:10:05.713Z,7.20
2019-02-17T18:12:33.295Z,6.60
2019-02-17T18:15:01.069Z,7.37
2019-02-17T18:17:28.743Z,6.87
2019-02-17T18:19:56.312Z,7.07
2019-02-17T18:22:23.894Z,6.47
2019-02-17T18:24:51.624Z,7.10
2019-02-17T18:27:19.171Z,7.90
2019-02-17T18:29:46.849Z,6.73
2019-02-17T18:32:14.556Z,7.80
2019-02-17T18:34:42.104Z,6.93
2019-02-17T18:37:09.772Z,6.97
2019-02-17T18:39:37.431Z,7.03
2019-02-17T18:42:05.059Z,7.80
2019-02-17T18:44:32.792Z,7.47
2019-02-17T18:47:00.375Z,7.27
2019-02-17T18:49:28.032Z,7.20
2019-02-17T18:51:55.682Z,8.20
2019-02-17T18:54:23.299Z,8.07
2019-02-17T18:56:51.097Z,7.17
2019-02-17T18:59:18.679Z,7.30
2019-02-17T19:01:46.318Z,7.47
2019-02-17T19:04:13.896Z,8.03
2019-02-17T19:06:41.576Z,7.43
2019-02-17T19:09:09.280Z,7.90
2019-02-17T19:11:36.967Z,8.00
2019-02-17T19:14:12.331Z,8.20
2019-02-17T19:16:40.019Z,9.00
2019-02-17T19:19:07.709Z,7.27
2019-02-17T19:21:35.309Z,6.90
2019-02-17T19:24:02.988Z,7.93
2019-02-17T19:26:30.677Z,7.50
2019-02-17T19:28:58.328Z,7.43
2019-02-17T19:31:25.965Z,7.90
2019-02-17T19:33:53.613Z,7.00
2019-02-17T19:36:21.329Z,8.03
2019-02-17T19:38:48.905Z,8.50
2019-02-17T19:41:16.546Z,8.13
2019-02-17T19:43:44.322Z,8.20
2019-02-17T19:46:11.978Z,7.67
2019-02-17T19:48:39.521Z,7.70
2019-02-17T19:51:07.372Z,8.40
2019-02-17T19:53:34.976Z,7.73
2019-02-17T19:56:02.612Z,7.57
2019-02-17T19:58:30.275Z,7.30
2019-02-17T20:00:57.929Z,7.60
2019-02-17T20:03:57.124Z,6.93
2019-02-17T20:06:25.701Z,6.93
2019-02-17T20:08:53.262Z,7.10
2019-02-17T20:11:20.896Z,7.30
2019-02-17T20:13:48.624Z,7.40
2019-02-17T20:16:16.268Z,7.60
2019-02-17T20:18:43.901Z,7.67
2019-02-17T20:21:11.575Z,8.33
2019-02-17T20:23:39.254Z,8.40
2019-02-17T20:26:06.867Z,7.60
2019-02-17T20:28:43.069Z,7.90
2019-02-17T20:31:03.962Z,7.17
2019-02-17T20:33:31.504Z,7.17
2019-02-17T20:36:02.854Z,7.70
2019-02-17T20:38:28.553Z,8.03
2019-02-17T20:40:56.117Z,7.43
2019-02-17T20:43:23.724Z,7.47
2019-02-17T20:45:51.337Z,8.17
2019-02-17T20:48:18.933Z,8.20
2019-02-17T20:50:46.463Z,7.77
2019-02-17T20:53:14.161Z,7.63
2019-02-17T20:55:41.707Z,8.40
2019-02-17T20:58:09.597Z,8.53
2019-02-17T22:20:52.865Z,7.70
2019-02-17T22:23:20.552Z,8.57
2019-02-17T22:25:48.191Z,8.10
2019-02-17T22:28:15.853Z,7.87
2019-02-17T22:30:43.440Z,7.73
2019-02-17T22:33:11.065Z,6.60
2019-02-17T22:35:38.641Z,6.77
2019-02-17T22:38:07.678Z,6.47
2019-02-17T22:40:35.259Z,6.87
2019-02-17T22:43:02.839Z,7.13
2019-02-17T22:45:30.480Z,8.70
2019-02-17T22:47:58.114Z,8.63
2019-02-17T22:50:25.757Z,7.97
2019-02-17T22:52:53.321Z,7.87
2019-02-17T22:55:20.903Z,8.57
2019-02-17T22:57:48.454Z,7.60
2019-02-17T23:00:31.248Z,7.57
2019-02-17T23:02:58.885Z,7.30
2019-02-17T23:05:26.621Z,8.17
2019-02-17T23:07:54.252Z,7.90
2019-02-17T23:10:21.874Z,8.50
2019-02-17T23:12:49.553Z,7.17
2019-02-17T23:15:17.337Z,8.27
2019-02-17T23:17:45.003Z,7.57
2019-02-17T23:20:12.872Z,8.20
2019-02-17T23:22:40.410Z,8.67
2019-02-17T23:25:08.917Z,7.67
2019-02-17T23:27:36.553Z,6.27
2019-02-17T23:30:04.528Z,6.93
2019-02-17T23:32:32.065Z,7.07
2019-02-17T23:34:59.695Z,7.30
2019-02-17T23:37:27.519Z,7.33
2019-02-17T23:39:55.132Z,7.27
2019-02-17T23:42:22.874Z,6.70
2019-02-17T23:44:50.509Z,7.33
2019-02-17T23:47:18.153Z,6.93
2019-02-17T23:49:45.793Z,7.03
2019-02-17T23:52:13.419Z,7.33
2019-02-17T23:54:41.029Z,7.83
2019-02-17T23:57:08.683Z,7.23
2019-02-17T23:59:36.376Z,7.93
